createdAt,value
2018-12-08T00:00:49.839Z,6.71
2018-12-08T00:01:49.871Z,6.70
2018-12-08T00:02:49.913Z,6.71
2018-12-08T00:03:49.953Z,6.64
2018-12-08T00:04:50.250Z,6.64
2018-12-08T00:05:50.020Z,6.70
2018-12-08T00:06:50.052Z,6.55
2018-12-08T00:07:50.097Z,6.56
2018-12-08T00:08:50.148Z,6.56
2018-12-08T00:09:50.167Z,6.56
2018-12-08T00:10:50.199Z,6.51
2018-12-08T00:11:50.240Z,6.55
2018-12-08T00:12:50.286Z,6.48
2018-12-08T00:13:50.314Z,6.40
2018-12-08T00:14:50.357Z,6.52
2018-12-08T00:15:50.384Z,6.52
2018-12-08T00:16:50.430Z,6.56
2018-12-08T00:17:50.460Z,6.49
2018-12-08T00:18:50.495Z,6.56
2018-12-08T00:19:50.530Z,6.64
2018-12-08T00:20:50.731Z,6.59
2018-12-08T00:21:50.604Z,6.59
2018-12-08T00:22:50.655Z,6.62
2018-12-08T00:23:50.930Z,6.71
2018-12-08T00:24:50.716Z,6.73
2018-12-08T00:25:50.754Z,6.77
2018-12-08T00:26:50.791Z,6.73
2018-12-08T00:27:50.825Z,6.87
2018-12-08T00:28:50.863Z,6.85
2018-12-08T00:29:50.897Z,6.84
2018-12-08T00:30:50.941Z,6.85
2018-12-08T00:31:50.973Z,6.87
2018-12-08T00:32:51.016Z,6.81
2018-12-08T00:33:51.048Z,6.88
2018-12-08T00:34:51.091Z,6.73
2018-12-08T00:35:51.130Z,6.70
2018-12-08T00:36:51.157Z,6.71
2018-12-08T00:37:51.197Z,6.56
2018-12-08T00:38:51.231Z,6.51
2018-12-08T00:39:51.269Z,6.49
2018-12-08T00:40:51.307Z,6.52
2018-12-08T00:41:51.342Z,6.43
2018-12-08T00:42:51.380Z,6.30
2018-12-08T00:43:51.419Z,6.21
2018-12-08T00:44:51.456Z,6.17
2018-12-08T00:45:51.499Z,6.09
2018-12-08T00:46:51.527Z,5.99
2018-12-08T00:47:51.563Z,5.94
2018-12-08T00:48:51.601Z,5.79
2018-12-08T00:49:51.633Z,5.85
2018-12-08T00:50:51.685Z,5.89
2018-12-08T00:51:51.718Z,5.65
2018-12-08T00:52:51.747Z,5.63
2018-12-08T00:53:51.892Z,5.65
2018-12-08T00:54:51.830Z,5.54
2018-12-08T00:55:51.859Z,5.57
2018-12-08T00:56:51.893Z,5.56
2018-12-08T00:57:51.932Z,5.57
2018-12-08T00:58:51.964Z,5.45
2018-12-08T00:59:52.002Z,5.45
2018-12-08T01:00:52.102Z,5.49
2018-12-08T01:01:52.077Z,5.38
2018-12-08T01:02:52.109Z,5.39
2018-12-08T01:03:52.146Z,5.45
2018-12-08T01:04:52.206Z,5.38
2018-12-08T01:05:52.226Z,5.39
2018-12-08T01:06:52.511Z,5.45
2018-12-08T01:07:52.303Z,5.45
2018-12-08T01:08:52.331Z,5.45
2018-12-08T01:09:52.367Z,5.40
2018-12-08T01:10:52.400Z,5.42
2018-12-08T01:11:52.454Z,5.36
2018-12-08T01:12:52.474Z,5.40
2018-12-08T01:13:52.619Z,5.38
2018-12-08T01:14:52.562Z,5.43
2018-12-08T01:15:52.613Z,5.35
2018-12-08T01:16:52.625Z,5.45
2018-12-08T01:17:52.659Z,5.43
2018-12-08T01:18:52.692Z,5.45
2018-12-08T01:19:52.787Z,5.39
2018-12-08T01:20:52.767Z,5.35
2018-12-08T01:21:52.803Z,5.40
2018-12-08T01:22:52.840Z,5.40
2018-12-08T01:23:52.875Z,5.39
2018-12-08T01:24:52.912Z,5.43
2018-12-08T01:25:52.953Z,5.42
2018-12-08T01:26:52.988Z,5.45
2018-12-08T01:27:53.019Z,5.46
2018-12-08T01:28:53.063Z,5.38
2018-12-08T01:29:53.103Z,5.40
2018-12-08T01:30:53.139Z,5.43
2018-12-08T01:31:53.163Z,5.46
2018-12-08T01:32:54.499Z,5.49
2018-12-08T01:33:53.236Z,5.57
2018-12-08T01:34:53.272Z,5.45
2018-12-08T01:35:53.310Z,5.46
2018-12-08T01:36:53.352Z,5.53
2018-12-08T01:37:53.387Z,5.58
2018-12-08T01:38:53.419Z,5.40
2018-12-08T01:39:53.456Z,5.49
2018-12-08T01:40:53.504Z,5.46
2018-12-08T01:41:53.530Z,5.46
2018-12-08T01:42:53.564Z,5.39
2018-12-08T01:43:53.603Z,5.46
2018-12-08T01:44:53.639Z,5.48
2018-12-08T01:45:53.681Z,5.53
2018-12-08T01:46:53.760Z,5.56
2018-12-08T01:47:53.748Z,5.51
2018-12-08T01:48:53.788Z,5.56
2018-12-08T01:49:53.821Z,5.54
2018-12-08T01:50:53.858Z,5.56
2018-12-08T01:51:53.900Z,5.61
2018-12-08T01:52:53.933Z,5.54
2018-12-08T01:53:53.965Z,5.54
2018-12-08T01:54:54.000Z,5.53
2018-12-08T01:55:54.035Z,5.53
2018-12-08T01:56:54.074Z,5.46
2018-12-08T01:57:54.114Z,5.48
2018-12-08T01:58:54.155Z,5.48
2018-12-08T01:59:54.275Z,5.36
2018-12-08T02:00:54.218Z,5.46
2018-12-08T02:01:54.259Z,5.40
2018-12-08T02:02:54.289Z,5.49
2018-12-08T02:03:54.333Z,5.54
2018-12-08T02:04:54.586Z,5.53
2018-12-08T02:05:54.401Z,5.51
2018-12-08T02:06:54.436Z,5.56
2018-12-08T02:07:54.484Z,5.54
2018-12-08T02:08:54.509Z,5.53
2018-12-08T02:09:54.548Z,5.57
2018-12-08T02:10:54.585Z,5.53
2018-12-08T02:11:54.615Z,5.56
2018-12-08T02:12:54.657Z,5.57
2018-12-08T02:13:54.702Z,5.65
2018-12-08T02:14:54.724Z,5.71
2018-12-08T02:15:54.762Z,5.67
2018-12-08T02:16:54.806Z,5.60
2018-12-08T02:17:54.839Z,5.65
2018-12-08T02:18:54.870Z,5.56
2018-12-08T02:19:54.913Z,5.49
2018-12-08T02:20:54.945Z,5.56
2018-12-08T02:21:54.980Z,5.48
2018-12-08T02:22:55.016Z,5.48
2018-12-08T02:23:55.054Z,5.43
2018-12-08T02:24:55.094Z,5.40
2018-12-08T02:25:55.125Z,5.40
2018-12-08T02:26:55.162Z,5.40
2018-12-08T02:27:55.198Z,5.39
2018-12-08T02:28:55.244Z,5.30
2018-12-08T02:29:55.269Z,5.24
2018-12-08T02:30:55.306Z,5.25
2018-12-08T02:31:55.351Z,5.20
2018-12-08T02:32:55.386Z,5.18
2018-12-08T02:33:55.418Z,5.20
2018-12-08T02:34:55.450Z,5.20
2018-12-08T02:35:55.491Z,5.20
2018-12-08T02:36:55.527Z,5.28
2018-12-08T02:37:55.562Z,5.27
2018-12-08T02:38:55.596Z,5.31
2018-12-08T02:39:55.633Z,5.27
2018-12-08T02:40:55.680Z,5.35
2018-12-08T02:41:55.709Z,5.30
2018-12-08T02:42:55.741Z,5.38
2018-12-08T02:43:55.779Z,5.40
2018-12-08T02:44:55.817Z,5.35
2018-12-08T02:45:55.850Z,5.33
2018-12-08T02:46:55.890Z,5.40
2018-12-08T02:47:55.925Z,5.46
2018-12-08T02:48:55.960Z,5.40
2018-12-08T02:49:55.993Z,5.39
2018-12-08T02:50:56.028Z,5.40
2018-12-08T02:51:56.064Z,5.53
2018-12-08T02:52:56.107Z,5.45
2018-12-08T02:53:56.138Z,5.45
2018-12-08T02:54:56.173Z,5.53
2018-12-08T02:55:56.210Z,5.53
2018-12-08T02:56:56.247Z,5.51
2018-12-08T02:57:56.465Z,5.57
2018-12-08T02:58:56.325Z,5.65
2018-12-08T02:59:56.354Z,5.65
2018-12-08T03:00:56.391Z,5.78
2018-12-08T03:01:56.455Z,5.82
2018-12-08T03:02:56.461Z,5.86
2018-12-08T03:03:56.507Z,5.82
2018-12-08T03:04:56.541Z,5.82
2018-12-08T03:05:56.571Z,5.89
2018-12-08T03:06:56.607Z,5.94
2018-12-08T03:07:56.642Z,5.99
2018-12-08T03:08:56.678Z,5.89
2018-12-08T03:09:56.721Z,5.93
2018-12-08T03:10:56.771Z,5.99
2018-12-08T03:11:56.807Z,6.00
2018-12-08T03:12:57.038Z,6.00
2018-12-08T03:13:56.860Z,5.97
2018-12-08T03:14:56.897Z,6.03
2018-12-08T03:15:56.938Z,5.97
2018-12-08T03:16:56.971Z,6.04
2018-12-08T03:17:57.007Z,6.09
2018-12-08T03:18:57.043Z,6.17
2018-12-08T03:19:57.084Z,6.22
2018-12-08T03:20:57.117Z,6.21
2018-12-08T03:21:57.153Z,6.33
2018-12-08T03:22:57.188Z,6.21
2018-12-08T03:23:57.223Z,6.34
2018-12-08T03:24:57.262Z,6.34
2018-12-08T03:25:57.305Z,6.36
2018-12-08T03:26:57.333Z,6.34
2018-12-08T03:27:57.371Z,6.34
2018-12-08T03:28:57.407Z,6.31
2018-12-08T03:29:57.447Z,6.33
2018-12-08T03:30:57.488Z,6.36
2018-12-08T03:31:57.526Z,6.33
2018-12-08T03:32:57.572Z,6.33
2018-12-08T03:33:57.587Z,6.36
2018-12-08T03:34:57.624Z,6.31
2018-12-08T03:35:57.661Z,6.19
2018-12-08T03:36:57.829Z,6.25
2018-12-08T03:37:57.802Z,6.22
2018-12-08T03:38:57.771Z,6.21
2018-12-08T03:39:57.813Z,6.17
2018-12-08T03:40:57.884Z,6.06
2018-12-08T03:41:57.880Z,6.12
2018-12-08T03:42:57.916Z,6.12
2018-12-08T03:43:57.953Z,6.17
2018-12-08T03:44:57.990Z,6.15
2018-12-08T03:45:58.026Z,6.12
2018-12-08T03:46:58.073Z,6.08
2018-12-08T03:47:58.099Z,6.12
2018-12-08T03:48:58.145Z,6.04
2018-12-08T03:49:58.171Z,6.04
2018-12-08T03:50:58.206Z,6.08
2018-12-08T03:51:58.252Z,6.09
2018-12-08T03:52:58.282Z,6.08
2018-12-08T03:53:58.332Z,6.18
2018-12-08T03:54:58.357Z,6.19
2018-12-08T03:55:58.391Z,6.27
2018-12-08T03:56:58.437Z,6.21
2018-12-08T03:57:58.472Z,6.19
2018-12-08T03:58:58.502Z,6.21
2018-12-08T03:59:58.536Z,6.22
2018-12-08T04:00:58.573Z,6.14
2018-12-08T04:01:58.611Z,6.11
2018-12-08T04:02:58.643Z,6.15
2018-12-08T04:03:58.691Z,6.17
2018-12-08T04:04:58.718Z,6.22
2018-12-08T04:05:58.853Z,6.21
2018-12-08T04:06:58.810Z,6.18
2018-12-08T04:07:58.833Z,6.09
2018-12-08T04:08:58.872Z,6.08
2018-12-08T04:09:58.910Z,6.06
2018-12-08T04:10:58.939Z,5.99
2018-12-08T04:11:58.971Z,5.97
2018-12-08T04:12:59.010Z,5.91
2018-12-08T04:13:59.046Z,5.93
2018-12-08T04:14:59.080Z,5.99
2018-12-08T04:15:59.117Z,5.91
2018-12-08T04:16:59.154Z,6.00
2018-12-08T04:17:59.205Z,6.06
2018-12-08T04:18:59.226Z,6.03
2018-12-08T04:19:59.282Z,6.01
2018-12-08T04:20:59.298Z,6.00
2018-12-08T04:21:59.335Z,6.06
2018-12-08T04:22:59.370Z,6.00
2018-12-08T04:23:59.408Z,6.00
2018-12-08T04:24:59.452Z,6.06
2018-12-08T04:25:59.478Z,6.01
2018-12-08T04:26:59.514Z,5.89
2018-12-08T04:27:59.567Z,5.89
2018-12-08T04:28:59.596Z,6.01
2018-12-08T04:29:59.628Z,5.99
2018-12-08T04:30:59.666Z,6.03
2018-12-08T04:31:59.698Z,6.04
2018-12-08T04:32:59.743Z,6.06
2018-12-08T04:33:59.778Z,6.06
2018-12-08T04:34:59.845Z,6.03
2018-12-08T04:35:59.851Z,6.01
2018-12-08T04:36:59.879Z,6.00
2018-12-08T04:37:59.917Z,6.00
2018-12-08T04:38:59.958Z,6.08
2018-12-08T04:40:00.178Z,6.06
2018-12-08T04:41:00.024Z,5.97
2018-12-08T04:42:00.058Z,6.03
2018-12-08T04:43:00.096Z,6.04
2018-12-08T04:44:00.132Z,6.06
2018-12-08T04:45:00.169Z,6.18
2018-12-08T04:46:00.207Z,6.06
2018-12-08T04:47:00.246Z,6.09
2018-12-08T04:48:00.278Z,6.19
2018-12-08T04:49:00.317Z,6.18
2018-12-08T04:50:00.352Z,6.19
2018-12-08T04:51:00.386Z,6.19
2018-12-08T04:52:00.428Z,6.19
2018-12-08T04:53:00.465Z,6.18
2018-12-08T04:54:00.497Z,6.33
2018-12-08T04:55:00.536Z,6.34
2018-12-08T04:56:00.685Z,6.19
2018-12-08T04:57:00.605Z,6.36
2018-12-08T04:58:00.642Z,6.34
2018-12-08T04:59:00.678Z,6.38
2018-12-08T05:00:00.714Z,6.28
2018-12-08T05:01:00.761Z,6.19
2018-12-08T05:02:06.278Z,6.27
2018-12-08T05:03:00.823Z,6.17
2018-12-08T05:04:00.875Z,6.12
2018-12-08T05:05:00.903Z,6.19
2018-12-08T05:06:00.936Z,6.15
2018-12-08T05:07:00.980Z,6.18
2018-12-08T05:08:01.008Z,6.21
2018-12-08T05:09:01.044Z,6.27
2018-12-08T05:10:01.143Z,6.21
2018-12-08T05:11:01.117Z,6.21
2018-12-08T05:12:01.159Z,6.18
2018-12-08T05:13:01.197Z,6.18
2018-12-08T05:14:01.227Z,6.19
2018-12-08T05:15:01.260Z,6.08
2018-12-08T05:16:01.301Z,6.04
2018-12-08T05:17:01.333Z,5.97
2018-12-08T05:18:01.368Z,6.00
2018-12-08T05:19:01.406Z,6.06
2018-12-08T05:20:01.443Z,6.11
2018-12-08T05:21:01.491Z,6.19
2018-12-08T05:22:01.520Z,6.17
2018-12-08T05:23:01.551Z,6.14
2018-12-08T05:24:01.594Z,6.21
2018-12-08T05:25:01.623Z,6.25
2018-12-08T05:26:01.662Z,6.21
2018-12-08T05:27:01.704Z,6.36
2018-12-08T05:28:01.735Z,6.30
2018-12-08T05:29:01.770Z,6.36
2018-12-08T05:30:01.816Z,6.37
2018-12-08T05:31:01.941Z,6.41
2018-12-08T05:32:01.893Z,6.52
2018-12-08T05:33:01.916Z,6.41
2018-12-08T05:34:01.955Z,6.52
2018-12-08T05:35:01.990Z,6.54
2018-12-08T05:36:02.079Z,6.55
2018-12-08T05:37:02.062Z,6.61
2018-12-08T05:38:02.099Z,6.58
2018-12-08T05:39:02.134Z,6.61
2018-12-08T05:40:02.172Z,6.64
2018-12-08T05:41:02.208Z,6.59
2018-12-08T05:42:02.247Z,6.67
2018-12-08T05:43:02.285Z,6.59
2018-12-08T05:44:02.318Z,6.64
2018-12-08T05:45:02.380Z,6.64
2018-12-08T05:46:02.390Z,6.64
2018-12-08T05:47:02.425Z,6.73
2018-12-08T05:48:02.471Z,6.76
2018-12-08T05:49:02.504Z,6.71
2018-12-08T05:50:02.539Z,6.69
2018-12-08T05:51:02.743Z,6.70
2018-12-08T05:52:02.610Z,6.71
2018-12-08T05:53:02.914Z,6.85
2018-12-08T05:54:02.684Z,6.79
2018-12-08T05:55:02.719Z,6.74
2018-12-08T05:56:02.761Z,6.74
2018-12-08T05:57:02.794Z,6.80
2018-12-08T05:58:02.831Z,6.88
2018-12-08T05:59:02.871Z,6.89
2018-12-08T06:00:02.904Z,6.84
2018-12-08T06:01:03.005Z,6.92
2018-12-08T06:02:02.981Z,6.84
2018-12-08T06:03:03.012Z,6.87
2018-12-08T06:04:03.048Z,6.79
2018-12-08T06:05:03.088Z,6.80
2018-12-08T06:06:03.124Z,6.80
2018-12-08T06:07:03.167Z,6.80
2018-12-08T06:08:03.203Z,6.84
2018-12-08T06:09:03.236Z,6.79
2018-12-08T06:10:03.283Z,6.87
2018-12-08T06:11:03.314Z,6.91
2018-12-08T06:12:03.345Z,6.87
2018-12-08T06:13:03.410Z,6.92
2018-12-08T06:14:03.418Z,6.81
2018-12-08T06:15:03.457Z,6.88
2018-12-08T06:16:03.491Z,6.85
2018-12-08T06:17:03.527Z,6.89
2018-12-08T06:18:03.566Z,6.84
2018-12-08T06:19:03.599Z,6.87
2018-12-08T06:20:03.637Z,6.81
2018-12-08T06:21:03.686Z,6.77
2018-12-08T06:22:03.710Z,6.91
2018-12-08T06:23:03.750Z,6.81
2018-12-08T06:24:03.782Z,6.81
2018-12-08T06:25:03.829Z,6.87
2018-12-08T06:26:03.858Z,6.81
2018-12-08T06:27:03.898Z,6.85
2018-12-08T06:28:03.929Z,6.85
2018-12-08T06:29:03.966Z,6.87
2018-12-08T06:30:04.095Z,6.97
2018-12-08T06:31:04.040Z,6.95
2018-12-08T06:32:04.076Z,6.97
2018-12-08T06:33:04.113Z,6.94
2018-12-08T06:34:04.152Z,7.05
2018-12-08T06:35:04.186Z,6.91
2018-12-08T06:36:04.223Z,6.97
2018-12-08T06:37:04.260Z,6.97
2018-12-08T06:38:04.299Z,7.02
2018-12-08T06:39:04.335Z,7.06
2018-12-08T06:40:04.373Z,7.03
2018-12-08T06:41:04.408Z,6.99
2018-12-08T06:42:04.447Z,7.07
2018-12-08T06:43:04.488Z,7.12
2018-12-08T06:44:04.521Z,7.10
2018-12-08T06:45:04.810Z,7.13
2018-12-08T06:46:04.593Z,7.20
2018-12-08T06:47:04.627Z,7.12
2018-12-08T06:48:04.666Z,7.16
2018-12-08T06:49:04.724Z,7.23
2018-12-08T06:50:04.739Z,7.10
2018-12-08T06:51:04.776Z,7.23
2018-12-08T06:52:04.813Z,7.17
2018-12-08T06:53:04.850Z,7.13
2018-12-08T06:54:04.897Z,7.10
2018-12-08T06:55:04.922Z,7.23
2018-12-08T06:56:04.962Z,7.20
2018-12-08T06:57:05.002Z,7.12
2018-12-08T06:58:05.060Z,7.12
2018-12-08T06:59:05.071Z,7.15
2018-12-08T07:00:05.105Z,7.15
2018-12-08T07:01:05.147Z,7.17
2018-12-08T07:02:05.193Z,7.12
2018-12-08T07:03:05.223Z,7.17
2018-12-08T07:04:05.256Z,7.09
2018-12-08T07:05:05.291Z,7.17
2018-12-08T07:06:05.327Z,7.21
2018-12-08T07:07:05.367Z,7.16
2018-12-08T07:08:05.402Z,7.17
2018-12-08T07:09:05.590Z,7.13
2018-12-08T07:10:05.498Z,7.16
2018-12-08T07:11:05.509Z,7.15
2018-12-08T07:12:05.563Z,7.21
2018-12-08T07:13:05.862Z,7.25
2018-12-08T07:14:05.637Z,7.16
2018-12-08T07:15:05.660Z,7.20
2018-12-08T07:16:05.702Z,7.25
2018-12-08T07:17:06.554Z,7.23
2018-12-08T07:18:05.789Z,7.20
2018-12-08T07:19:05.817Z,7.21
2018-12-08T07:20:05.850Z,7.27
2018-12-08T07:21:05.880Z,7.25
2018-12-08T07:22:05.916Z,7.32
2018-12-08T07:23:05.979Z,7.30
2018-12-08T07:24:05.989Z,7.37
2018-12-08T07:25:06.030Z,7.42
2018-12-08T07:26:06.320Z,7.45
2018-12-08T07:27:06.114Z,7.42
2018-12-08T07:28:06.135Z,7.42
2018-12-08T07:29:06.172Z,7.39
2018-12-08T07:30:06.418Z,7.48
2018-12-08T07:31:06.244Z,7.42
2018-12-08T07:32:06.292Z,7.43
2018-12-08T07:33:06.320Z,7.34
2018-12-08T07:34:06.365Z,7.34
2018-12-08T07:35:06.392Z,7.42
2018-12-08T07:36:06.437Z,7.37
2018-12-08T07:37:06.471Z,7.35
2018-12-08T07:38:06.504Z,7.35
2018-12-08T07:39:06.541Z,7.34
2018-12-08T07:40:06.577Z,7.35
2018-12-08T07:41:06.615Z,7.35
2018-12-08T07:42:06.843Z,7.35
2018-12-08T07:43:06.695Z,7.28
2018-12-08T07:44:06.724Z,7.31
2018-12-08T07:45:06.762Z,7.39
2018-12-08T07:46:06.807Z,7.35
2018-12-08T07:47:06.837Z,7.35
2018-12-08T07:48:06.874Z,7.32
2018-12-08T07:49:06.912Z,7.40
2018-12-08T07:50:06.951Z,7.32
2018-12-08T07:51:06.984Z,7.45
2018-12-08T07:52:07.020Z,7.46
2018-12-08T07:53:07.058Z,7.42
2018-12-08T07:54:07.095Z,7.43
2018-12-08T07:55:07.137Z,7.52
2018-12-08T07:56:07.168Z,7.45
2018-12-08T07:57:07.216Z,7.46
2018-12-08T07:58:07.242Z,7.46
2018-12-08T07:59:07.280Z,7.48
2018-12-08T08:00:07.333Z,7.48
2018-12-08T08:01:07.352Z,7.46
2018-12-08T08:02:07.392Z,7.45
2018-12-08T08:03:07.964Z,7.45
2018-12-08T08:04:07.462Z,7.55
2018-12-08T08:05:08.880Z,7.53
2018-12-08T08:06:07.537Z,7.50
2018-12-08T08:07:07.573Z,7.45
2018-12-08T08:08:07.616Z,7.52
2018-12-08T08:09:07.649Z,7.46
2018-12-08T08:10:07.688Z,7.57
2018-12-08T08:11:07.722Z,7.55
2018-12-08T08:12:07.786Z,7.45
2018-12-08T08:13:07.797Z,7.57
2018-12-08T08:14:07.833Z,7.50
2018-12-08T08:15:07.877Z,7.49
2018-12-08T08:16:07.932Z,7.43
2018-12-08T08:17:07.948Z,7.45
2018-12-08T08:18:07.985Z,7.58
2018-12-08T08:19:08.025Z,7.53
2018-12-08T08:20:08.054Z,7.50
2018-12-08T08:21:08.093Z,7.48
2018-12-08T08:22:08.131Z,7.48
2018-12-08T08:23:08.222Z,7.43
2018-12-08T08:24:08.213Z,7.49
2018-12-08T08:25:08.240Z,7.45
2018-12-08T08:26:08.278Z,7.52
2018-12-08T08:27:08.313Z,7.50
2018-12-08T08:28:08.449Z,7.46
2018-12-08T08:29:08.402Z,7.37
2018-12-08T08:30:08.425Z,7.39
2018-12-08T08:31:08.515Z,7.40
2018-12-08T08:32:08.500Z,7.46
2018-12-08T08:33:08.539Z,7.48
2018-12-08T08:34:08.576Z,7.48
2018-12-08T08:35:08.614Z,7.40
2018-12-08T08:36:08.653Z,7.46
2018-12-08T08:37:09.585Z,7.42
2018-12-08T08:38:08.720Z,7.50
2018-12-08T08:39:08.756Z,7.46
2018-12-08T08:40:08.804Z,7.52
2018-12-08T08:41:08.831Z,7.48
2018-12-08T08:42:08.868Z,7.48
2018-12-08T08:43:08.905Z,7.46
2018-12-08T08:44:08.941Z,7.52
2018-12-08T08:45:08.979Z,7.67
2018-12-08T08:46:09.019Z,7.75
2018-12-08T08:47:09.052Z,7.79
2018-12-08T08:48:09.091Z,7.79
2018-12-08T08:49:09.153Z,7.87
2018-12-08T08:50:09.225Z,7.86
2018-12-08T08:51:09.204Z,7.80
2018-12-08T08:52:09.238Z,7.89
2018-12-08T08:53:09.282Z,7.80
2018-12-08T08:54:09.312Z,7.89
2018-12-08T08:55:09.354Z,7.92
2018-12-08T08:56:09.400Z,8.01
2018-12-08T08:57:09.423Z,8.12
2018-12-08T08:58:09.469Z,8.10
2018-12-08T08:59:09.514Z,8.19
2018-12-08T09:00:09.542Z,8.18
2018-12-08T09:01:09.579Z,8.18
2018-12-08T09:02:09.699Z,8.29
2018-12-08T09:03:09.647Z,8.28
2018-12-08T09:04:09.795Z,8.34
2018-12-08T09:05:09.720Z,8.48
2018-12-08T09:06:09.757Z,8.47
2018-12-08T09:07:09.796Z,8.40
2018-12-08T09:08:09.850Z,8.34
2018-12-08T09:09:09.877Z,8.29
2018-12-08T09:10:09.907Z,8.36
2018-12-08T09:11:09.945Z,8.37
2018-12-08T09:12:10.050Z,8.37
2018-12-08T09:13:10.024Z,8.36
2018-12-08T09:14:13.347Z,8.38
2018-12-08T09:15:10.103Z,8.38
2018-12-08T09:16:10.132Z,8.22
2018-12-08T09:17:10.319Z,8.23
2018-12-08T09:18:10.208Z,8.20
2018-12-08T09:19:10.243Z,8.22
2018-12-08T09:20:10.287Z,8.26
2018-12-08T09:21:10.752Z,8.26
2018-12-08T09:22:10.433Z,8.20
2018-12-08T09:23:10.411Z,8.19
2018-12-08T09:24:10.433Z,8.22
2018-12-08T09:25:10.469Z,8.16
2018-12-08T09:26:10.514Z,8.22
2018-12-08T09:27:10.542Z,8.18
2018-12-08T09:28:10.582Z,8.22
2018-12-08T09:29:10.624Z,8.18
2018-12-08T09:30:10.655Z,8.22
2018-12-08T09:31:10.692Z,8.19
2018-12-08T09:32:10.728Z,8.16
2018-12-08T09:33:10.789Z,8.20
2018-12-08T09:34:10.804Z,8.36
2018-12-08T09:35:10.848Z,8.34
2018-12-08T09:36:10.929Z,8.29
2018-12-08T09:37:10.974Z,8.23
2018-12-08T09:38:10.954Z,8.26
2018-12-08T09:39:10.989Z,8.25
2018-12-08T09:40:11.035Z,8.26
2018-12-08T09:41:11.069Z,8.29
2018-12-08T09:42:11.103Z,8.38
2018-12-08T09:43:11.144Z,8.50
2018-12-08T09:44:11.181Z,8.45
2018-12-08T09:45:11.224Z,8.53
2018-12-08T09:46:11.257Z,8.52
2018-12-08T09:47:11.292Z,8.55
2018-12-08T09:48:11.328Z,8.62
2018-12-08T09:49:11.366Z,8.59
2018-12-08T09:50:11.402Z,8.61
2018-12-08T09:51:11.439Z,8.48
2018-12-08T09:52:11.476Z,8.47
2018-12-08T09:53:11.514Z,8.47
2018-12-08T09:54:11.553Z,8.45
2018-12-08T09:55:11.589Z,8.50
2018-12-08T09:56:11.687Z,8.41
2018-12-08T09:57:11.666Z,8.43
2018-12-08T09:58:11.703Z,8.47
2018-12-08T09:59:11.741Z,8.50
2018-12-08T10:00:11.778Z,8.41
2018-12-08T10:01:11.825Z,8.36
2018-12-08T10:02:11.854Z,8.22
2018-12-08T10:03:11.890Z,8.34
2018-12-08T10:04:11.929Z,8.38
2018-12-08T10:05:11.966Z,8.30
2018-12-08T10:06:12.004Z,8.36
2018-12-08T10:07:12.041Z,8.19
2018-12-08T10:08:12.078Z,8.33
2018-12-08T10:09:12.124Z,8.25
2018-12-08T10:10:12.155Z,8.26
2018-12-08T10:11:12.225Z,8.29
2018-12-08T10:12:12.229Z,8.25
2018-12-08T10:13:12.267Z,8.30
2018-12-08T10:14:12.305Z,8.22
2018-12-08T10:15:12.341Z,8.34
2018-12-08T10:16:12.378Z,8.30
2018-12-08T10:17:12.417Z,8.34
2018-12-08T10:18:12.531Z,8.36
2018-12-08T10:19:12.498Z,8.40
2018-12-08T10:20:12.548Z,8.45
2018-12-08T10:21:12.573Z,8.44
2018-12-08T10:22:12.636Z,8.43
2018-12-08T10:23:12.640Z,8.47
2018-12-08T10:24:12.679Z,8.52
2018-12-08T10:25:12.727Z,8.50
2018-12-08T10:26:12.806Z,8.53
2018-12-08T10:27:12.803Z,8.43
2018-12-08T10:28:12.845Z,8.45
2018-12-08T10:29:12.878Z,8.45
2018-12-08T10:30:12.906Z,8.43
2018-12-08T10:31:12.946Z,8.41
2018-12-08T10:32:12.991Z,8.47
2018-12-08T10:33:13.018Z,8.55
2018-12-08T10:34:13.064Z,8.61
2018-12-08T10:35:13.099Z,8.62
2018-12-08T10:36:13.137Z,8.77
2018-12-08T10:37:13.175Z,8.66
2018-12-08T10:38:13.203Z,8.65
2018-12-08T10:39:13.243Z,8.65
2018-12-08T10:40:13.284Z,8.68
2018-12-08T10:41:13.320Z,8.81
2018-12-08T10:42:13.358Z,8.77
2018-12-08T10:43:13.391Z,8.80
2018-12-08T10:44:13.430Z,8.86
2018-12-08T10:45:13.474Z,8.84
2018-12-08T10:46:13.507Z,8.96
2018-12-08T10:47:13.562Z,8.91
2018-12-08T10:48:13.582Z,8.91
2018-12-08T10:49:13.697Z,8.91
2018-12-08T10:50:13.674Z,9.10
2018-12-08T10:51:13.699Z,9.08
2018-12-08T10:52:13.975Z,9.14
2018-12-08T10:53:13.841Z,9.10
2018-12-08T10:54:14.082Z,9.32
2018-12-08T10:55:13.968Z,9.35
2018-12-08T10:56:13.885Z,9.38
2018-12-08T10:57:14.024Z,9.48
2018-12-08T10:58:14.190Z,9.43
2018-12-08T10:59:13.999Z,9.48
2018-12-08T11:00:14.034Z,9.53
2018-12-08T11:01:14.133Z,9.48
2018-12-08T11:02:14.201Z,9.51
2018-12-08T11:03:14.148Z,9.57
2018-12-08T11:04:14.192Z,9.47
2018-12-08T11:05:14.321Z,9.39
2018-12-08T11:06:14.530Z,9.35
2018-12-08T11:07:14.298Z,9.23
2018-12-08T11:08:14.360Z,9.28
2018-12-08T11:09:14.378Z,9.18
2018-12-08T11:10:14.506Z,9.20
2018-12-08T11:11:14.452Z,9.18
2018-12-08T11:12:14.492Z,9.20
2018-12-08T11:13:14.532Z,9.28
2018-12-08T11:14:14.580Z,9.21
2018-12-08T11:15:14.604Z,9.23
2018-12-08T11:16:14.646Z,9.20
2018-12-08T11:17:14.681Z,9.21
2018-12-08T11:18:14.728Z,9.23
2018-12-08T11:19:14.756Z,9.24
2018-12-08T11:20:14.798Z,9.14
2018-12-08T11:21:14.884Z,9.14
2018-12-08T11:22:14.872Z,9.14
2018-12-08T11:23:14.919Z,9.14
2018-12-08T11:24:14.949Z,9.17
2018-12-08T11:25:14.991Z,9.20
2018-12-08T11:26:15.023Z,9.21
2018-12-08T11:27:15.062Z,9.39
2018-12-08T11:28:15.100Z,9.54
2018-12-08T11:29:15.139Z,9.60
2018-12-08T11:30:15.179Z,9.69
2018-12-08T11:31:15.225Z,9.64
2018-12-08T11:32:15.253Z,9.72
2018-12-08T11:33:15.292Z,9.83
2018-12-08T11:34:15.329Z,9.86
2018-12-08T11:35:15.377Z,9.78
2018-12-08T11:36:15.413Z,9.75
2018-12-08T11:37:15.445Z,9.76
2018-12-08T11:38:15.484Z,9.89
2018-12-08T11:39:15.522Z,9.89
2018-12-08T11:40:15.560Z,9.91
2018-12-08T11:41:15.597Z,9.91
2018-12-08T11:43:15.670Z,9.91
2018-12-08T11:44:15.711Z,9.91
2018-12-08T11:45:15.765Z,9.84
2018-12-08T11:46:15.787Z,9.72
2018-12-08T11:47:15.832Z,9.78
2018-12-08T11:48:15.864Z,9.72
2018-12-08T11:49:15.903Z,9.71
2018-12-08T11:50:15.942Z,9.72
2018-12-08T11:51:15.981Z,9.75
2018-12-08T11:52:16.017Z,9.76
2018-12-08T11:53:16.115Z,9.74
2018-12-08T11:54:16.095Z,9.75
2018-12-08T11:55:16.135Z,9.76
2018-12-08T11:56:16.169Z,9.81
2018-12-08T11:57:16.209Z,9.75
2018-12-08T11:58:16.248Z,9.78
2018-12-08T11:59:16.289Z,9.76
2018-12-08T12:00:16.324Z,9.72
2018-12-08T12:01:16.362Z,9.79
2018-12-08T12:02:16.879Z,9.74
2018-12-08T12:03:16.442Z,9.78
2018-12-08T12:04:16.481Z,9.81
2018-12-08T12:05:16.516Z,9.79
2018-12-08T12:06:16.565Z,9.75
2018-12-08T12:07:16.592Z,9.75
2018-12-08T12:08:16.634Z,9.74
2018-12-08T12:09:16.686Z,9.69
2018-12-08T12:10:16.811Z,9.76
2018-12-08T12:11:16.748Z,9.61
2018-12-08T12:12:16.787Z,9.60
2018-12-08T12:13:16.823Z,9.54
2018-12-08T12:14:16.863Z,9.54
2018-12-08T12:15:16.901Z,9.50
2018-12-08T12:16:16.936Z,9.48
2018-12-08T12:17:17.128Z,9.47
2018-12-08T12:18:17.013Z,9.48
2018-12-08T12:19:17.053Z,9.50
2018-12-08T12:20:17.095Z,9.33
2018-12-08T12:21:17.136Z,9.38
2018-12-08T12:22:17.167Z,9.43
2018-12-08T12:23:17.207Z,9.33
2018-12-08T12:24:17.244Z,9.33
2018-12-08T12:25:17.289Z,9.36
2018-12-08T12:26:17.320Z,9.26
2018-12-08T12:27:17.358Z,9.13
2018-12-08T12:28:17.397Z,9.13
2018-12-08T12:29:17.435Z,9.13
2018-12-08T12:30:17.474Z,9.11
2018-12-08T12:31:17.528Z,8.98
2018-12-08T12:32:17.549Z,8.95
2018-12-08T12:33:17.589Z,8.94
2018-12-08T12:34:17.631Z,8.98
2018-12-08T12:35:17.868Z,8.87
2018-12-08T12:36:17.895Z,8.94
2018-12-08T12:37:17.766Z,8.87
2018-12-08T12:38:17.785Z,8.86
2018-12-08T12:39:17.867Z,8.77
2018-12-08T12:40:17.866Z,8.81
2018-12-08T12:41:17.894Z,8.73
2018-12-08T12:42:17.944Z,8.74
2018-12-08T12:43:17.970Z,8.66
2018-12-08T12:44:18.121Z,8.68
2018-12-08T12:45:18.047Z,8.68
2018-12-08T12:46:18.082Z,8.68
2018-12-08T12:47:18.127Z,8.68
2018-12-08T12:48:18.179Z,8.66
2018-12-08T12:49:18.202Z,8.71
2018-12-08T12:50:18.230Z,8.68
2018-12-08T12:51:18.280Z,8.68
2018-12-08T12:52:18.311Z,8.63
2018-12-08T12:53:18.343Z,8.68
2018-12-08T12:54:18.384Z,8.77
2018-12-08T12:55:18.423Z,8.80
2018-12-08T12:56:18.457Z,8.84
2018-12-08T12:57:18.513Z,8.83
2018-12-08T12:58:18.541Z,8.83
2018-12-08T12:59:18.573Z,8.84
2018-12-08T13:00:18.617Z,8.98
2018-12-08T13:01:18.652Z,8.98
2018-12-08T13:02:18.682Z,8.94
2018-12-08T13:03:18.720Z,8.99
2018-12-08T13:04:18.763Z,8.98
2018-12-08T13:05:18.800Z,8.92
2018-12-08T13:06:18.842Z,9.01
2018-12-08T13:07:18.872Z,8.94
2018-12-08T13:08:18.927Z,9.05
2018-12-08T13:09:19.033Z,9.11
2018-12-08T13:10:18.985Z,9.15
2018-12-08T13:11:19.032Z,9.14
2018-12-08T13:12:19.063Z,9.17
2018-12-08T13:13:19.102Z,9.24
2018-12-08T13:14:19.140Z,9.28
2018-12-08T13:15:19.183Z,9.24
2018-12-08T13:16:19.214Z,9.21
2018-12-08T13:17:19.253Z,9.23
2018-12-08T13:18:19.307Z,9.21
2018-12-08T13:19:19.328Z,9.20
2018-12-08T13:20:19.370Z,9.14